Time;durP1;ratioP1;P1;durP2;ratioP2;P2;SDS_P1;SDS_P2;PMS_P1;PMS_P2;Temp;Humidity;BMP_temperature;BMP_pressure;BME280_temperature;BME280_humidity;BME280_pressure;Samples;Min_cycle;Max_cycle;Signal;HPM_P1;HPM_P2
2023/01/03 00:00:16;;;;;;;8.80;8.20;;;;;;;;;;5035406;28;20091;-48
2023/01/03 00:02:42;;;;;;;8.20;7.70;;;;;;;;;;5037411;28;20037;-51
2023/01/03 00:05:07;;;;;;;9.70;9.10;;;;;;;;;;5036516;28;20029;-61
2023/01/03 00:07:33;;;;;;;8.10;7.60;;;;;;;;;;5037022;28;20033;-60
2023/01/03 00:10:08;;;;;;;8.00;7.50;;;;;;;;;;5035770;28;20490;-60
2023/01/03 00:12:34;;;;;;;8.82;8.23;;;;;;;;;;5034603;28;20033;-47
2023/01/03 00:15:00;;;;;;;9.00;8.40;;;;;;;;;;5034732;28;20037;-49
2023/01/03 00:17:26;;;;;;;9.07;8.48;;;;;;;;;;5036492;28;20040;-48
2023/01/03 00:19:52;;;;;;;8.70;8.18;;;;;;;;;;5033287;28;20583;-60
2023/01/03 00:22:17;;;;;;;8.98;8.38;;;;;;;;;;5034530;28;20056;-47
2023/01/03 00:24:44;;;;;;;8.40;7.90;;;;;;;;;;5033269;28;20124;-48
2023/01/03 00:27:10;;;;;;;9.52;8.93;;;;;;;;;;5034196;28;20068;-60
2023/01/03 00:29:36;;;;;;;8.38;7.88;;;;;;;;;;5034810;28;20451;-60
2023/01/03 00:32:02;;;;;;;8.90;8.30;;;;;;;;;;5030594;28;20029;-61
2023/01/03 00:34:28;;;;;;;8.95;8.35;;;;;;;;;;5032880;28;20444;-55
2023/01/03 00:36:53;;;;;;;8.93;8.32;;;;;;;;;;5032821;28;20033;-49
2023/01/03 00:39:19;;;;;;;9.60;9.00;;;;;;;;;;5033802;28;20042;-61
2023/01/03 00:41:45;;;;;;;9.40;8.73;;;;;;;;;;5034312;28;20386;-60
2023/01/03 00:44:10;;;;;;;9.57;8.98;;;;;;;;;;5038346;28;20033;-61
2023/01/03 00:46:35;;;;;;;9.77;9.18;;;;;;;;;;5034829;28;20656;-50
2023/01/03 00:49:02;;;;;;;9.00;8.40;;;;;;;;;;5037521;28;20040;-51
2023/01/03 00:51:30;;;;;;;9.90;9.30;;;;;;;;;;5037501;28;20041;-60
2023/01/03 00:53:57;;;;;;;9.60;9.00;;;;;;;;;;5035027;28;20045;-61
2023/01/03 00:56:29;;;;;;;9.35;8.75;;;;;;;;;;5036113;28;20043;-60
2023/01/03 00:58:54;;;;;;;8.80;8.23;;;;;;;;;;5036054;28;20041;-60
2023/01/03 01:01:27;;;;;;;9.90;9.20;;;;;;;;;;5034549;28;20029;-60
2023/01/03 01:03:58;;;;;;;10.27;9.57;;;;;;;;;;5036080;28;20073;-61
2023/01/03 01:06:27;;;;;;;10.20;9.50;;;;;;;;;;5034366;28;20446;-61
2023/01/03 01:08:55;;;;;;;9.80;9.20;;;;;;;;;;5033249;28;20496;-60
2023/01/03 01:11:22;;;;;;;9.30;8.70;;;;;;;;;;5035853;28;20043;-47
2023/01/03 01:13:48;;;;;;;9.05;8.45;;;;;;;;;;5034667;28;20037;-48
2023/01/03 01:16:17;;;;;;;8.38;7.88;;;;;;;;;;5037026;28;20029;-49
2023/01/03 01:18:44;;;;;;;9.15;8.55;;;;;;;;;;5033822;28;20514;-48
2023/01/03 01:21:13;;;;;;;10.10;9.30;;;;;;;;;;5039622;28;20037;-47
2023/01/03 01:23:40;;;;;;;9.73;9.13;;;;;;;;;;5034200;28;20504;-48
2023/01/03 01:26:07;;;;;;;9.30;8.70;;;;;;;;;;5036567;28;20033;-50
2023/01/03 01:28:34;;;;;;;9.68;9.07;;;;;;;;;;5035659;28;20037;-48
2023/01/03 01:31:01;;;;;;;9.23;8.63;;;;;;;;;;5036511;28;20065;-49
2023/01/03 01:33:27;;;;;;;10.15;9.55;;;;;;;;;;5035033;28;20033;-47
2023/01/03 01:35:52;;;;;;;9.43;8.82;;;;;;;;;;5034869;28;20033;-48
2023/01/03 01:38:18;;;;;;;9.38;8.77;;;;;;;;;;5031095;28;20029;-48
2023/01/03 01:40:44;;;;;;;9.35;8.75;;;;;;;;;;5034735;28;20037;-49
2023/01/03 01:46:11;;;;;;;9.05;8.43;;;;;;;;;;5035798;28;20033;-61
2023/01/03 01:48:38;;;;;;;8.70;8.13;;;;;;;;;;5033908;28;20029;-47
2023/01/03 01:51:03;;;;;;;9.38;8.77;;;;;;;;;;5033920;28;20037;-61
2023/01/03 01:53:33;;;;;;;10.00;9.40;;;;;;;;;;5034472;28;20029;-60
2023/01/03 01:56:30;;;;;;;10.20;9.13;;;;;;;;;;5051591;28;20067;-61
2023/01/03 01:58:55;;;;;;;9.63;9.02;;;;;;;;;;5032100;28;20542;-60
2023/01/03 02:01:23;;;;;;;9.18;8.57;;;;;;;;;;5031830;28;20056;-61
2023/01/03 02:04:00;;;;;;;8.60;8.10;;;;;;;;;;5034098;28;20489;-51
2023/01/03 02:06:28;;;;;;;9.88;9.02;;;;;;;;;;5031149;28;20180;-47
2023/01/03 02:08:53;;;;;;;9.82;9.23;;;;;;;;;;5032634;28;20025;-49
2023/01/03 02:11:48;;;;;;;9.27;8.68;;;;;;;;;;5033517;28;20033;-61
2023/01/03 02:14:16;;;;;;;9.43;8.75;;;;;;;;;;5025583;28;20059;-51
2023/01/03 02:17:26;;;;;;;9.05;8.45;;;;;;;;;;5035635;28;20029;-50
2023/01/03 02:20:18;;;;;;;9.25;8.65;;;;;;;;;;5039433;28;20052;-50
2023/01/03 02:22:43;;;;;;;9.02;8.43;;;;;;;;;;5034272;28;20038;-49
2023/01/03 02:25:45;;;;;;;8.50;8.00;;;;;;;;;;5032594;28;20100;-48
2023/01/03 02:28:48;;;;;;;9.55;8.95;;;;;;;;;;5035890;28;20076;-60
2023/01/03 02:31:31;;;;;;;8.60;8.10;;;;;;;;;;5031142;28;20128;-60
2023/01/03 02:34:34;;;;;;;8.63;8.02;;;;;;;;;;5034756;28;20033;-60
2023/01/03 02:37:39;;;;;;;8.90;8.30;;;;;;;;;;5034360;28;20351;-60
2023/01/03 02:40:21;;;;;;;8.75;8.15;;;;;;;;;;5032024;28;20109;-46
2023/01/03 02:43:14;;;;;;;9.30;8.70;;;;;;;;;;5036222;28;20051;-50
2023/01/03 02:46:04;;;;;;;9.15;8.48;;;;;;;;;;5032519;28;20039;-49
2023/01/03 02:48:47;;;;;;;9.77;9.07;;;;;;;;;;5034291;28;20052;-49
2023/01/03 02:51:21;;;;;;;8.85;8.27;;;;;;;;;;5033324;28;20114;-60
2023/01/03 02:53:49;;;;;;;8.95;8.35;;;;;;;;;;5033104;28;20037;-60
2023/01/03 02:56:25;;;;;;;9.95;9.15;;;;;;;;;;5035921;28;20056;-60
2023/01/03 02:58:56;;;;;;;9.10;8.50;;;;;;;;;;5031732;28;20104;-51
2023/01/03 03:01:22;;;;;;;9.73;9.05;;;;;;;;;;5034095;28;20060;-60
2023/01/03 03:03:49;;;;;;;9.35;8.75;;;;;;;;;;5035978;28;20375;-50
2023/01/03 03:06:40;;;;;;;9.35;8.75;;;;;;;;;;5035307;28;20442;-50
2023/01/03 03:09:06;;;;;;;9.82;9.23;;;;;;;;;;5013787;28;20119;-47
2023/01/03 03:14:38;;;;;;;10.02;9.35;;;;;;;;;;5035998;28;20076;-50
2023/01/03 03:17:09;;;;;;;20.60;10.20;;;;;;;;;;5033000;28;20112;-48
2023/01/03 03:25:31;;;;;;;8.40;7.90;;;;;;;;;;5033249;28;20044;-46
2023/01/03 03:30:53;;;;;;;;;;;;;;;;;;5033836;28;20029;-45
2023/01/03 03:33:21;;;;;;;9.30;8.70;;;;;;;;;;5037618;28;19917;-47
2023/01/03 03:35:55;;;;;;;9.52;8.82;;;;;;;;;;5036450;28;20039;-60
2023/01/03 03:38:38;;;;;;;9.35;8.75;;;;;;;;;;5036475;28;20506;-61
2023/01/03 03:44:59;;;;;;;8.90;8.30;;;;;;;;;;5037898;28;20065;-60
2023/01/03 03:47:02;;;;;;;9.25;8.65;;;;;;;;;;5037200;28;20455;-60
2023/01/03 03:49:37;;;;;;;9.35;8.75;;;;;;;;;;5037787;28;20033;-50
2023/01/03 03:52:07;;;;;;;9.45;8.75;;;;;;;;;;5035960;28;20056;-46
2023/01/03 03:54:38;;;;;;;9.07;8.48;;;;;;;;;;5035074;28;20087;-61
2023/01/03 03:57:22;;;;;;;;;;;;;;;;;;5036643;28;20041;-61
2023/01/03 03:59:52;;;;;;;8.68;8.13;;;;;;;;;;5034721;28;20239;-51
2023/01/03 04:02:19;;;;;;;9.48;8.88;;;;;;;;;;5039210;28;20029;-60
2023/01/03 04:04:48;;;;;;;8.43;7.93;;;;;;;;;;5034910;28;20362;-60
2023/01/03 04:07:13;;;;;;;9.02;8.43;;;;;;;;;;5038444;28;20045;-50
2023/01/03 04:09:39;;;;;;;9.80;9.20;;;;;;;;;;5035114;28;20044;-52
2023/01/03 04:12:05;;;;;;;9.65;9.05;;;;;;;;;;5034760;28;20041;-50
2023/01/03 04:14:30;;;;;;;9.30;8.70;;;;;;;;;;5035836;28;20037;-60
2023/01/03 04:16:55;;;;;;;9.00;8.40;;;;;;;;;;5035094;28;20389;-47
2023/01/03 04:19:21;;;;;;;9.25;8.65;;;;;;;;;;5038554;28;20033;-48
2023/01/03 04:21:46;;;;;;;9.50;8.90;;;;;;;;;;5036955;28;20033;-50
2023/01/03 04:24:12;;;;;;;11.15;10.45;;;;;;;;;;5037265;28;20103;-62
2023/01/03 04:26:37;;;;;;;8.55;7.95;;;;;;;;;;5035234;28;20087;-60
2023/01/03 04:29:02;;;;;;;9.98;9.27;;;;;;;;;;5036328;28;20638;-60
2023/01/03 04:31:28;;;;;;;10.02;9.32;;;;;;;;;;5031789;28;20033;-60
2023/01/03 04:33:54;;;;;;;9.10;8.50;;;;;;;;;;5037874;28;20056;-60
2023/01/03 04:36:20;;;;;;;9.18;8.48;;;;;;;;;;5035634;28;20080;-60
2023/01/03 04:38:45;;;;;;;9.32;8.73;;;;;;;;;;5036580;28;20049;-60
2023/01/03 04:41:11;;;;;;;10.15;9.45;;;;;;;;;;5033079;28;20125;-52
2023/01/03 04:46:21;;;;;;;9.23;8.63;;;;;;;;;;5034023;28;20044;-60
2023/01/03 04:48:46;;;;;;;9.23;8.63;;;;;;;;;;5032825;28;20041;-47
2023/01/03 04:51:11;;;;;;;9.20;8.60;;;;;;;;;;5032863;28;20612;-48
2023/01/03 04:53:37;;;;;;;9.88;9.27;;;;;;;;;;5034509;28;20528;-60
2023/01/03 04:56:02;;;;;;;11.43;10.57;;;;;;;;;;5033488;28;20502;-60
2023/01/03 04:58:28;;;;;;;8.93;8.32;;;;;;;;;;5032318;28;20041;-60
2023/01/03 05:01:02;;;;;;;10.43;9.63;;;;;;;;;;5033137;28;20036;-60
2023/01/03 05:03:28;;;;;;;9.93;9.25;;;;;;;;;;5034196;28;20037;-60
2023/01/03 05:06:02;;;;;;;10.27;9.63;;;;;;;;;;5036424;28;20302;-52
2023/01/03 05:08:27;;;;;;;9.88;9.27;;;;;;;;;;5037096;28;20025;-60
2023/01/03 05:10:53;;;;;;;9.88;9.18;;;;;;;;;;5036487;28;20095;-60
2023/01/03 05:13:18;;;;;;;9.45;8.85;;;;;;;;;;5053211;28;20044;-61
2023/01/03 05:15:44;;;;;;;9.77;9.18;;;;;;;;;;5032354;28;20040;-61
2023/01/03 05:18:09;;;;;;;10.27;9.48;;;;;;;;;;5036135;28;20124;-59
2023/01/03 05:26:12;;;;;;;9.43;8.82;;;;;;;;;;5035515;28;20188;-61
2023/01/03 05:28:38;;;;;;;8.70;8.10;;;;;;;;;;5034089;28;20383;-61
2023/01/03 05:31:03;;;;;;;9.57;8.98;;;;;;;;;;5036069;28;20025;-61
2023/01/03 05:33:29;;;;;;;9.52;8.93;;;;;;;;;;5038495;28;20447;-59
2023/01/03 05:35:54;;;;;;;9.32;8.73;;;;;;;;;;5034336;28;20041;-61
2023/01/03 05:38:20;;;;;;;9.52;8.90;;;;;;;;;;5034226;28;20131;-61
2023/01/03 05:40:45;;;;;;;9.98;9.35;;;;;;;;;;5032934;28;20049;-61
2023/01/03 05:43:11;;;;;;;9.45;8.85;;;;;;;;;;5032074;28;20413;-61
2023/01/03 05:45:38;;;;;;;9.38;8.65;;;;;;;;;;5036081;28;20040;-61
2023/01/03 05:48:05;;;;;;;9.63;9.02;;;;;;;;;;5034618;28;20041;-61
2023/01/03 05:50:30;;;;;;;10.00;9.30;;;;;;;;;;5033828;28;20063;-61
2023/01/03 05:52:56;;;;;;;9.02;8.43;;;;;;;;;;5034556;28;20759;-59
2023/01/03 05:55:21;;;;;;;10.85;10.15;;;;;;;;;;5035768;28;20038;-61
2023/01/03 05:57:47;;;;;;;9.55;8.93;;;;;;;;;;5032995;28;20547;-61
2023/01/03 06:00:13;;;;;;;9.68;9.07;;;;;;;;;;5031253;28;20103;-61
2023/01/03 06:02:39;;;;;;;10.30;9.60;;;;;;;;;;5032092;28;20063;-61
2023/01/03 06:05:05;;;;;;;9.73;9.13;;;;;;;;;;5033046;28;20037;-61
2023/01/03 06:07:32;;;;;;;9.07;8.48;;;;;;;;;;5030927;28;20032;-61
2023/01/03 06:09:58;;;;;;;9.98;9.27;;;;;;;;;;5035670;28;20033;-51
2023/01/03 06:12:28;;;;;;;9.15;8.55;;;;;;;;;;5032308;28;20029;-61
2023/01/03 06:14:53;;;;;;;10.25;9.55;;;;;;;;;;5030799;28;20537;-51
2023/01/03 06:20:03;;;;;;;10.18;9.50;;;;;;;;;;5034866;28;20040;-51
2023/01/03 06:22:28;;;;;;;10.20;9.60;;;;;;;;;;5037099;28;20037;-62
2023/01/03 06:24:54;;;;;;;11.43;10.55;;;;;;;;;;5031719;28;20037;-61
2023/01/03 06:27:19;;;;;;;10.13;9.30;;;;;;;;;;5033085;28;20118;-61
2023/01/03 06:29:45;;;;;;;9.88;9.23;;;;;;;;;;5039354;28;20033;-52
2023/01/03 06:32:10;;;;;;;10.25;9.55;;;;;;;;;;5034749;28;20029;-50
2023/01/03 06:34:36;;;;;;;9.90;9.30;;;;;;;;;;5035504;28;20025;-61
2023/01/03 06:37:02;;;;;;;10.02;9.32;;;;;;;;;;5038441;28;20067;-61
2023/01/03 06:39:27;;;;;;;18.95;11.02;;;;;;;;;;5040876;28;20041;-62
2023/01/03 06:41:52;;;;;;;9.70;9.10;;;;;;;;;;5038143;28;20052;-62
2023/01/03 06:44:18;;;;;;;9.98;9.27;;;;;;;;;;5039350;28;20033;-61
2023/01/03 06:54:59;;;;;;;9.77;9.18;;;;;;;;;;5030180;28;20040;-60
2023/01/03 06:57:24;;;;;;;10.32;9.68;;;;;;;;;;5027990;28;20046;-60
2023/01/03 06:59:49;;;;;;;9.23;8.63;;;;;;;;;;5029703;28;20025;-49
2023/01/03 07:02:15;;;;;;;9.55;8.95;;;;;;;;;;5046925;28;20090;-49
2023/01/03 07:04:40;;;;;;;10.93;10.25;;;;;;;;;;5031259;28;20091;-48
2023/01/03 07:07:06;;;;;;;9.65;8.98;;;;;;;;;;5030958;28;20040;-60
2023/01/03 07:09:31;;;;;;;9.40;8.77;;;;;;;;;;5030357;28;20033;-61
2023/01/03 07:13:57;;;;;;;10.32;9.43;;;;;;;;;;5030582;28;20111;-61
2023/01/03 07:14:42;;;;;;;10.48;9.77;;;;;;;;;;5030358;28;20041;-47
2023/01/03 07:17:07;;;;;;;10.80;10.10;;;;;;;;;;5030505;28;20115;-48
2023/01/03 07:19:33;;;;;;;10.50;9.88;;;;;;;;;;5030470;28;20028;-51
2023/01/03 07:21:58;;;;;;;10.13;9.52;;;;;;;;;;5029842;28;20025;-48
2023/01/03 07:24:23;;;;;;;12.05;10.82;;;;;;;;;;5031398;28;20041;-47
2023/01/03 07:26:49;;;;;;;10.60;9.90;;;;;;;;;;5031137;28;20043;-47
2023/01/03 07:29:14;;;;;;;10.63;9.93;;;;;;;;;;5030395;28;20029;-49
2023/01/03 07:31:40;;;;;;;9.95;9.35;;;;;;;;;;5029400;28;20414;-48
2023/01/03 07:34:06;;;;;;;9.43;8.82;;;;;;;;;;5032694;28;20509;-48
2023/01/03 07:36:32;;;;;;;10.13;9.52;;;;;;;;;;5048588;28;20476;-48
2023/01/03 07:38:57;;;;;;;10.85;10.15;;;;;;;;;;5031332;28;20060;-61
2023/01/03 07:43:35;;;;;;;11.15;10.45;;;;;;;;;;5032326;28;20040;-61
2023/01/03 07:44:08;;;;;;;9.95;9.32;;;;;;;;;;5031071;28;20041;-60
2023/01/03 07:46:33;;;;;;;10.63;9.88;;;;;;;;;;5032231;28;20033;-60
2023/01/03 07:49:01;;;;;;;10.75;10.05;;;;;;;;;;5034015;28;20056;-60
2023/01/03 07:51:27;;;;;;;11.55;10.75;;;;;;;;;;5031253;28;20068;-60
2023/01/03 07:53:52;;;;;;;11.38;10.68;;;;;;;;;;5035352;28;20068;-60
2023/01/03 07:56:19;;;;;;;11.32;10.63;;;;;;;;;;5033867;28;20146;-61
2023/01/03 07:58:46;;;;;;;10.18;9.50;;;;;;;;;;5031832;28;20083;-61
2023/01/03 08:01:16;;;;;;;10.60;10.00;;;;;;;;;;5033394;28;20043;-47
2023/01/03 08:03:43;;;;;;;10.48;9.82;;;;;;;;;;5034263;28;20099;-61
2023/01/03 08:06:12;;;;;;;9.90;9.30;;;;;;;;;;5032831;28;20037;-60
2023/01/03 08:08:38;;;;;;;10.10;9.48;;;;;;;;;;5031663;28;20107;-48
2023/01/03 08:13:48;;;;;;;10.93;10.13;;;;;;;;;;5031701;28;20072;-46
2023/01/03 08:16:16;;;;;;;11.43;10.73;;;;;;;;;;5034763;28;20068;-61
2023/01/03 08:18:42;;;;;;;10.30;9.60;;;;;;;;;;5034307;28;20072;-61
2023/01/03 08:21:09;;;;;;;9.95;9.35;;;;;;;;;;5034735;28;20530;-61
2023/01/03 08:23:35;;;;;;;11.63;10.93;;;;;;;;;;5046706;28;20048;-61
2023/01/03 08:26:09;;;;;;;10.88;10.18;;;;;;;;;;5032318;28;20059;-60
2023/01/03 08:28:35;;;;;;;11.23;10.52;;;;;;;;;;5033892;28;20033;-60
2023/01/03 08:31:06;;;;;;;12.27;11.48;;;;;;;;;;5032127;28;20867;-50
2023/01/03 08:33:37;;;;;;;11.13;10.43;;;;;;;;;;5036619;28;20033;-52
2023/01/03 08:36:05;;;;;;;10.70;9.97;;;;;;;;;;5036337;28;20207;-52
2023/01/03 08:38:39;;;;;;;11.73;10.85;;;;;;;;;;5035075;28;20037;-49
2023/01/03 08:41:06;;;;;;;10.27;9.63;;;;;;;;;;5031307;28;20043;-50
2023/01/03 08:43:35;;;;;;;11.07;10.38;;;;;;;;;;5049710;28;20037;-52
2023/01/03 08:46:03;;;;;;;10.27;9.68;;;;;;;;;;5034407;28;20509;-46
2023/01/03 08:48:28;;;;;;;10.35;9.65;;;;;;;;;;5037819;28;20029;-51
2023/01/03 08:50:54;;;;;;;10.65;10.00;;;;;;;;;;5034611;28;20099;-49
2023/01/03 08:53:21;;;;;;;10.32;9.63;;;;;;;;;;5035032;28;20140;-51
2023/01/03 08:55:47;;;;;;;10.27;9.65;;;;;;;;;;5035339;28;20067;-48
2023/01/03 08:58:12;;;;;;;10.88;10.18;;;;;;;;;;5033186;28;20119;-50
2023/01/03 09:00:38;;;;;;;11.40;10.63;;;;;;;;;;5039203;28;20207;-49
2023/01/03 09:03:04;;;;;;;10.75;9.95;;;;;;;;;;5036407;28;20056;-52
2023/01/03 09:05:29;;;;;;;10.50;9.52;;;;;;;;;;5037148;28;20077;-50
2023/01/03 09:07:54;;;;;;;10.77;10.07;;;;;;;;;;5031740;28;20471;-51
2023/01/03 09:10:21;;;;;;;10.85;10.15;;;;;;;;;;5034264;28;20040;-51
2023/01/03 09:12:46;;;;;;;9.00;8.40;;;;;;;;;;5033065;28;20750;-51
2023/01/03 09:15:11;;;;;;;10.10;9.30;;;;;;;;;;5032257;28;20033;-47
2023/01/03 09:17:40;;;;;;;9.73;9.00;;;;;;;;;;5034025;28;20674;-47
2023/01/03 09:20:07;;;;;;;10.77;10.07;;;;;;;;;;5033123;28;20416;-47
2023/01/03 09:22:32;;;;;;;9.82;9.23;;;;;;;;;;5032886;28;20466;-51
2023/01/03 09:24:57;;;;;;;11.57;10.77;;;;;;;;;;5041892;28;20094;-49
2023/01/03 09:27:23;;;;;;;10.82;9.82;;;;;;;;;;5034866;28;20072;-49
2023/01/03 09:29:48;;;;;;;10.60;9.90;;;;;;;;;;5031962;28;20037;-49
2023/01/03 09:32:14;;;;;;;10.88;10.18;;;;;;;;;;5035239;28;20734;-48
2023/01/03 09:34:39;;;;;;;11.52;10.73;;;;;;;;;;5031934;28;20184;-52
2023/01/03 09:37:04;;;;;;;9.90;9.30;;;;;;;;;;5034799;28;20047;-50
2023/01/03 09:39:30;;;;;;;10.82;10.10;;;;;;;;;;5035396;28;20133;-48
2023/01/03 09:44:41;;;;;;;10.55;9.75;;;;;;;;;;5033214;28;20029;-49
2023/01/03 09:47:17;;;;;;;10.70;9.93;;;;;;;;;;5033004;28;20032;-47
2023/01/03 09:49:42;;;;;;;10.18;9.35;;;;;;;;;;5033322;28;20119;-49
2023/01/03 10:03:43;;;;;;;9.68;9.07;;;;;;;;;;5034401;28;20032;-49
2023/01/03 10:06:32;;;;;;;10.02;9.32;;;;;;;;;;5032784;28;20032;-48
2023/01/03 10:09:21;;;;;;;9.55;8.95;;;;;;;;;;5049128;28;20039;-61
2023/01/03 10:12:01;;;;;;;9.32;8.73;;;;;;;;;;5036719;28;20049;-47
2023/01/03 10:14:44;;;;;;;9.90;9.18;;;;;;;;;;5033560;28;20440;-51
2023/01/03 10:17:24;;;;;;;9.70;9.10;;;;;;;;;;5034665;28;20045;-51
2023/01/03 10:20:23;;;;;;;10.18;9.50;;;;;;;;;;5036175;28;20037;-61
2023/01/03 10:22:50;;;;;;;9.52;8.85;;;;;;;;;;5034502;28;20085;-50
2023/01/03 10:25:21;;;;;;;10.13;9.38;;;;;;;;;;5033754;28;20041;-61
2023/01/03 10:27:55;;;;;;;10.88;10.18;;;;;;;;;;5031804;28;20041;-50
2023/01/03 10:30:49;;;;;;;10.90;10.20;;;;;;;;;;5032643;28;20058;-48
2023/01/03 10:33:36;;;;;;;10.63;9.98;;;;;;;;;;5034111;28;20051;-61
2023/01/03 10:36:02;;;;;;;10.25;9.65;;;;;;;;;;5034800;28;20596;-62
2023/01/03 10:38:27;;;;;;;10.60;9.90;;;;;;;;;;5034184;28;20041;-61
2023/01/03 10:40:58;;;;;;;10.35;9.73;;;;;;;;;;5032326;28;20033;-52
2023/01/03 10:43:42;;;;;;;10.45;9.75;;;;;;;;;;5033420;28;20029;-53
2023/01/03 10:46:21;;;;;;;11.00;10.30;;;;;;;;;;5033640;28;20032;-50
2023/01/03 10:48:49;;;;;;;11.18;10.07;;;;;;;;;;5034827;28;20608;-51
2023/01/03 10:51:42;;;;;;;10.70;10.05;;;;;;;;;;5037703;28;20059;-61
2023/01/03 10:54:19;;;;;;;10.43;9.82;;;;;;;;;;5034799;28;20088;-61
2023/01/03 10:56:48;;;;;;;11.45;10.65;;;;;;;;;;5034355;28;20025;-49
2023/01/03 10:59:14;;;;;;;11.90;11.10;;;;;;;;;;5034891;28;20037;-50
2023/01/03 11:02:12;;;;;;;11.30;10.60;;;;;;;;;;5032795;28;20526;-51
2023/01/03 11:04:37;;;;;;;9.98;9.38;;;;;;;;;;5034282;28;20033;-49
2023/01/03 11:07:12;;;;;;;11.15;10.45;;;;;;;;;;5033526;28;20036;-52
2023/01/03 11:09:53;;;;;;;9.98;9.38;;;;;;;;;;5030144;28;20120;-61
2023/01/03 11:12:32;;;;;;;11.50;10.80;;;;;;;;;;5040158;28;20033;-50
2023/01/03 11:14:59;;;;;;;10.40;9.80;;;;;;;;;;5032634;28;20427;-51
2023/01/03 11:17:26;;;;;;;11.23;10.45;;;;;;;;;;5033596;28;20041;-51
2023/01/03 11:19:52;;;;;;;10.70;10.00;;;;;;;;;;5029980;28;20053;-52
2023/01/03 11:22:44;;;;;;;10.68;9.98;;;;;;;;;;5036209;28;20108;-49
2023/01/03 11:25:14;;;;;;;;;;;;;;;;;;5031830;28;20043;-61
2023/01/03 11:27:58;;;;;;;9.90;9.27;;;;;;;;;;5032063;28;19917;-61
2023/01/03 11:30:39;;;;;;;10.45;9.70;;;;;;;;;;5032927;28;20163;-61
2023/01/03 11:33:11;;;;;;;11.75;11.05;;;;;;;;;;5033319;28;20359;-62
2023/01/03 11:35:56;;;;;;;12.10;11.30;;;;;;;;;;5032216;28;20160;-61
2023/01/03 11:38:42;;;;;;;12.15;11.45;;;;;;;;;;5034567;28;20045;-61
2023/01/03 11:41:29;;;;;;;11.52;10.82;;;;;;;;;;5031014;28;20477;-61
2023/01/03 11:44:19;;;;;;;12.32;11.57;;;;;;;;;;5031097;28;20102;-62
2023/01/03 11:47:08;;;;;;;11.95;11.25;;;;;;;;;;5029956;28;20033;-61
2023/01/03 11:49:44;;;;;;;12.38;11.48;;;;;;;;;;5030893;28;20260;-61
2023/01/03 11:52:28;;;;;;;11.90;11.10;;;;;;;;;;5031463;28;20364;-61
2023/01/03 11:55:18;;;;;;;10.73;10.10;;;;;;;;;;5033159;28;20125;-61
2023/01/03 11:58:13;;;;;;;11.40;10.70;;;;;;;;;;5035947;28;20090;-61
2023/01/03 12:00:59;;;;;;;11.93;11.23;;;;;;;;;;5031554;28;20099;-61
2023/01/03 12:03:55;;;;;;;12.02;11.32;;;;;;;;;;5032057;28;20037;-61
2023/01/03 12:06:47;;;;;;;10.95;10.25;;;;;;;;;;5035605;28;20083;-62
2023/01/03 12:09:32;;;;;;;11.27;10.50;;;;;;;;;;5038336;28;20029;-53
2023/01/03 12:12:09;;;;;;;11.48;10.77;;;;;;;;;;5039757;28;20140;-50
2023/01/03 12:14:42;;;;;;;11.95;11.25;;;;;;;;;;5038069;28;20037;-48
2023/01/03 12:17:18;;;;;;;10.93;10.23;;;;;;;;;;5041003;28;20571;-48
2023/01/03 12:19:51;;;;;;;11.85;11.15;;;;;;;;;;5041126;28;20063;-56
2023/01/03 12:22:40;;;;;;;11.13;10.43;;;;;;;;;;5042504;28;20046;-61
2023/01/03 12:25:26;;;;;;;10.20;9.60;;;;;;;;;;5038704;28;20037;-48
2023/01/03 12:28:10;;;;;;;11.27;10.57;;;;;;;;;;5038646;28;20127;-61
2023/01/03 12:31:01;;;;;;;10.95;10.25;;;;;;;;;;5036612;28;20140;-48
2023/01/03 12:33:37;;;;;;;10.07;9.48;;;;;;;;;;5033482;28;20152;-51
2023/01/03 12:36:47;;;;;;;10.52;9.93;;;;;;;;;;5033709;28;20047;-51
2023/01/03 12:39:35;;;;;;;10.43;9.82;;;;;;;;;;5036984;28;20087;-49
2023/01/03 12:42:13;;;;;;;11.10;10.38;;;;;;;;;;5034063;28;20037;-48
2023/01/03 12:44:43;;;;;;;10.73;10.05;;;;;;;;;;5033762;28;20040;-62
2023/01/03 12:47:27;;;;;;;10.55;9.88;;;;;;;;;;5035231;28;20033;-62
2023/01/03 12:49:57;;;;;;;10.75;10.07;;;;;;;;;;5033355;28;20037;-62
2023/01/03 12:52:24;;;;;;;11.13;10.43;;;;;;;;;;5037112;28;20033;-62
2023/01/03 12:54:53;;;;;;;12.85;12.05;;;;;;;;;;5036498;28;20033;-61
2023/01/03 12:57:44;;;;;;;12.43;11.73;;;;;;;;;;5036435;28;20079;-62
2023/01/03 13:00:34;;;;;;;11.00;10.30;;;;;;;;;;5035758;28;20033;-61
2023/01/03 13:03:22;;;;;;;12.10;11.37;;;;;;;;;;5052701;28;20091;-61
2023/01/03 13:05:52;;;;;;;11.82;11.13;;;;;;;;;;5036831;28;20044;-47
2023/01/03 13:08:23;;;;;;;11.15;10.10;;;;;;;;;;5037960;28;20039;-48
2023/01/03 13:10:50;;;;;;;;;;;;;;;;;;5035116;28;20589;-47
2023/01/03 13:13:18;;;;;;;11.45;10.75;;;;;;;;;;5034845;28;19913;-49
2023/01/03 13:15:45;;;;;;;11.10;10.43;;;;;;;;;;5038766;28;20034;-51
2023/01/03 13:18:19;;;;;;;10.77;10.07;;;;;;;;;;5036708;28;20041;-48
2023/01/03 13:20:46;;;;;;;10.40;9.80;;;;;;;;;;5037098;28;20035;-51
2023/01/03 13:23:28;;;;;;;11.52;10.82;;;;;;;;;;5050366;28;20115;-51
2023/01/03 13:26:20;;;;;;;11.13;10.43;;;;;;;;;;5034986;28;20108;-48
2023/01/03 13:28:46;;;;;;;12.25;11.55;;;;;;;;;;5030234;28;20176;-61
2023/01/03 13:31:18;;;;;;;11.43;10.73;;;;;;;;;;5036438;28;20128;-61
2023/01/03 13:33:52;;;;;;;11.20;10.50;;;;;;;;;;5032635;28;20107;-61
2023/01/03 13:36:18;;;;;;;11.85;11.15;;;;;;;;;;5034702;28;20597;-61
2023/01/03 13:38:44;;;;;;;11.23;10.52;;;;;;;;;;5034554;28;20128;-49
2023/01/03 13:41:35;;;;;;;11.23;10.52;;;;;;;;;;5034142;28;20135;-54
2023/01/03 13:44:23;;;;;;;12.05;11.35;;;;;;;;;;5033930;28;20068;-49
2023/01/03 13:46:49;;;;;;;10.85;10.15;;;;;;;;;;5049605;28;20415;-52
2023/01/03 13:49:35;;;;;;;11.32;10.63;;;;;;;;;;5033749;28;20434;-50
2023/01/03 13:52:04;;;;;;;11.85;11.15;;;;;;;;;;5036145;28;20583;-51
2023/01/03 13:54:34;;;;;;;12.23;11.48;;;;;;;;;;5036701;28;20112;-61
2023/01/03 13:57:02;;;;;;;12.48;11.77;;;;;;;;;;5033922;28;20091;-51
2023/01/03 13:59:34;;;;;;;11.15;10.48;;;;;;;;;;5033035;28;20041;-50
2023/01/03 14:02:08;;;;;;;11.43;10.73;;;;;;;;;;5035653;28;20032;-52
2023/01/03 14:05:05;;;;;;;11.20;10.50;;;;;;;;;;5036747;28;20512;-51
2023/01/03 14:07:33;;;;;;;11.63;10.93;;;;;;;;;;5033577;28;20040;-49
2023/01/03 14:10:28;;;;;;;12.13;11.43;;;;;;;;;;5033238;28;20028;-50
2023/01/03 14:13:02;;;;;;;11.80;11.10;;;;;;;;;;5034309;28;20413;-48
2023/01/03 14:15:30;;;;;;;12.48;11.68;;;;;;;;;;5033961;28;20106;-48
2023/01/03 14:18:11;;;;;;;11.75;11.05;;;;;;;;;;5031638;28;20048;-50
2023/01/03 14:20:40;;;;;;;12.15;11.45;;;;;;;;;;5035492;28;20044;-52
2023/01/03 14:23:07;;;;;;;11.80;11.10;;;;;;;;;;5033374;28;20033;-61
2023/01/03 14:25:41;;;;;;;11.73;11.02;;;;;;;;;;5033614;28;20036;-61
2023/01/03 14:28:24;;;;;;;11.50;10.80;;;;;;;;;;5035945;28;20112;-61
2023/01/03 14:30:53;;;;;;;12.38;11.68;;;;;;;;;;5028168;28;20361;-47
2023/01/03 14:33:21;;;;;;;12.52;11.82;;;;;;;;;;5031812;28;20098;-50
2023/01/03 14:35:46;;;;;;;12.98;12.23;;;;;;;;;;5030525;28;20307;-61
2023/01/03 14:38:33;;;;;;;13.50;12.52;;;;;;;;;;5033871;28;20033;-48
2023/01/03 14:40:59;;;;;;;12.07;11.38;;;;;;;;;;5030370;28;20033;-48
2023/01/03 14:43:32;;;;;;;13.45;12.65;;;;;;;;;;5033138;28;20076;-61
2023/01/03 14:46:06;;;;;;;13.27;12.43;;;;;;;;;;5036557;28;20048;-61
2023/01/03 14:48:32;;;;;;;13.70;12.90;;;;;;;;;;5032477;28;20025;-49
2023/01/03 14:51:03;;;;;;;12.52;11.77;;;;;;;;;;5034253;28;20052;-51
2023/01/03 14:53:30;;;;;;;12.00;11.20;;;;;;;;;;5030663;28;20036;-48
2023/01/03 14:55:56;;;;;;;13.80;12.90;;;;;;;;;;5031987;28;20051;-61
2023/01/03 14:58:27;;;;;;;14.13;13.02;;;;;;;;;;5028319;28;20041;-49
2023/01/03 15:00:53;;;;;;;13.48;12.57;;;;;;;;;;5034443;28;20045;-52
2023/01/03 15:03:19;;;;;;;11.70;11.00;;;;;;;;;;5030448;28;20045;-52
2023/01/03 15:05:44;;;;;;;11.27;10.52;;;;;;;;;;5033762;28;20063;-61
2023/01/03 15:08:30;;;;;;;11.65;10.95;;;;;;;;;;5032088;28;20044;-61
2023/01/03 15:11:04;;;;;;;11.43;10.65;;;;;;;;;;5034999;28;20061;-62
2023/01/03 15:13:49;;;;;;;11.30;10.60;;;;;;;;;;5035107;28;20060;-61
2023/01/03 15:16:30;;;;;;;10.65;9.98;;;;;;;;;;5034869;28;20033;-61
2023/01/03 15:19:02;;;;;;;11.75;11.05;;;;;;;;;;5033651;28;20034;-52
2023/01/03 15:21:28;;;;;;;10.88;10.18;;;;;;;;;;5033132;28;20065;-51
2023/01/03 15:23:54;;;;;;;12.15;11.25;;;;;;;;;;5034686;28;20052;-50
2023/01/03 15:26:34;;;;;;;11.35;10.65;;;;;;;;;;5029732;28;20070;-50
2023/01/03 15:29:23;;;;;;;11.88;11.18;;;;;;;;;;5035620;28;20067;-61
2023/01/03 15:31:56;;;;;;;11.23;10.52;;;;;;;;;;5032105;28;20439;-61
2023/01/03 15:34:28;;;;;;;10.32;9.73;;;;;;;;;;5035840;28;20037;-49
2023/01/03 15:37:14;;;;;;;10.52;9.82;;;;;;;;;;5036880;28;20576;-49
2023/01/03 15:39:46;;;;;;;10.52;9.90;;;;;;;;;;5042303;28;20045;-61
2023/01/03 15:45:01;;;;;;;11.25;10.55;;;;;;;;;;5038005;28;20200;-49
2023/01/03 15:47:29;;;;;;;10.68;10.02;;;;;;;;;;5038128;28;20545;-50
2023/01/03 15:49:58;;;;;;;10.95;10.25;;;;;;;;;;5034440;28;20115;-49
2023/01/03 15:52:23;;;;;;;10.95;10.25;;;;;;;;;;5034730;28;20422;-61
2023/01/03 15:54:49;;;;;;;10.30;9.65;;;;;;;;;;5037727;28;20025;-61